sensor_id;sensor_type;location;lat;lon;timestamp;temperature;humidity
62154;DHT22;48140;45.486;9.226;2022-09-25T00:01:48;15.10;99.90
62154;DHT22;48140;45.486;9.226;2022-09-25T00:04:14;15.10;99.90
62154;DHT22;48140;45.486;9.226;2022-09-25T00:06:39;15.10;99.90
62154;DHT22;48140;45.486;9.226;2022-09-25T00:09:06;15.10;99.90
62154;DHT22;48140;45.486;9.226;2022-09-25T00:11:32;15.10;99.90
62154;DHT22;48140;45.486;9.226;2022-09-25T00:13:59;15.10;99.90
62154;DHT22;48140;45.486;9.226;2022-09-25T00:16:26;15.10;99.90
62154;DHT22;48140;45.486;9.226;2022-09-25T00:18:52;15.10;99.90
62154;DHT22;48140;45.486;9.226;2022-09-25T00:21:36;15.00;99.90
62154;DHT22;48140;45.486;9.226;2022-09-25T00:24:04;15.10;99.90
62154;DHT22;48140;45.486;9.226;2022-09-25T00:26:31;15.10;99.90
62154;DHT22;48140;45.486;9.226;2022-09-25T00:28:57;15.10;99.90
62154;DHT22;48140;45.486;9.226;2022-09-25T00:31:25;15.10;99.90
62154;DHT22;48140;45.486;9.226;2022-09-25T00:33:55;15.00;99.90
62154;DHT22;48140;45.486;9.226;2022-09-25T00:36:21;15.00;99.90
62154;DHT22;48140;45.486;9.226;2022-09-25T00:38:46;15.00;99.90
62154;DHT22;48140;45.486;9.226;2022-09-25T00:41:14;14.90;99.90
62154;DHT22;48140;45.486;9.226;2022-09-25T00:43:41;15.00;99.90
62154;DHT22;48140;45.486;9.226;2022-09-25T00:48:37;15.00;99.90
62154;DHT22;48140;45.486;9.226;2022-09-25T00:51:04;15.00;99.90
62154;DHT22;48140;45.486;9.226;2022-09-25T00:53:32;15.00;99.90
62154;DHT22;48140;45.486;9.226;2022-09-25T00:55:59;15.00;99.90
62154;DHT22;48140;45.486;9.226;2022-09-25T00:58:25;15.00;99.90
62154;DHT22;48140;45.486;9.226;2022-09-25T01:00:52;15.00;99.90
62154;DHT22;48140;45.486;9.226;2022-09-25T01:03:18;15.00;99.90
62154;DHT22;48140;45.486;9.226;2022-09-25T01:05:44;15.00;99.90
62154;DHT22;48140;45.486;9.226;2022-09-25T01:08:11;15.10;99.90
62154;DHT22;48140;45.486;9.226;2022-09-25T01:10:38;15.10;99.90
62154;DHT22;48140;45.486;9.226;2022-09-25T01:13:04;15.10;99.90
62154;DHT22;48140;45.486;9.226;2022-09-25T01:15:44;15.10;99.90
62154;DHT22;48140;45.486;9.226;2022-09-25T01:28:57;15.10;99.90
62154;DHT22;48140;45.486;9.226;2022-09-25T01:31:31;15.10;99.90
62154;DHT22;48140;45.486;9.226;2022-09-25T01:33:59;15.10;99.90
62154;DHT22;48140;45.486;9.226;2022-09-25T01:36:28;15.10;99.90
62154;DHT22;48140;45.486;9.226;2022-09-25T01:41:37;15.10;99.90
62154;DHT22;48140;45.486;9.226;2022-09-25T01:44:06;15.00;99.90
62154;DHT22;48140;45.486;9.226;2022-09-25T01:46:33;15.00;99.90
62154;DHT22;48140;45.486;9.226;2022-09-25T01:49:07;14.90;99.90
62154;DHT22;48140;45.486;9.226;2022-09-25T01:51:40;15.00;99.90
62154;DHT22;48140;45.486;9.226;2022-09-25T01:54:09;15.00;99.90
62154;DHT22;48140;45.486;9.226;2022-09-25T01:56:50;15.10;99.90
62154;DHT22;48140;45.486;9.226;2022-09-25T01:59:16;15.10;99.90
62154;DHT22;48140;45.486;9.226;2022-09-25T02:01:42;15.10;99.90
62154;DHT22;48140;45.486;9.226;2022-09-25T02:04:10;15.10;99.90
62154;DHT22;48140;45.486;9.226;2022-09-25T02:06:37;15.10;99.90
62154;DHT22;48140;45.486;9.226;2022-09-25T02:09:05;15.00;99.90
62154;DHT22;48140;45.486;9.226;2022-09-25T02:11:33;15.10;99.90
62154;DHT22;48140;45.486;9.226;2022-09-25T02:14:05;15.00;99.90
62154;DHT22;48140;45.486;9.226;2022-09-25T02:16:34;15.00;99.90
62154;DHT22;48140;45.486;9.226;2022-09-25T02:19:00;15.00;99.90
62154;DHT22;48140;45.486;9.226;2022-09-25T02:21:48;15.10;99.90
62154;DHT22;48140;45.486;9.226;2022-09-25T02:24:26;15.00;99.90
62154;DHT22;48140;45.486;9.226;2022-09-25T02:26:53;15.10;99.90
62154;DHT22;48140;45.486;9.226;2022-09-25T02:29:20;15.10;99.90
62154;DHT22;48140;45.486;9.226;2022-09-25T02:31:49;15.10;99.90
62154;DHT22;48140;45.486;9.226;2022-09-25T02:34:17;15.00;99.90
62154;DHT22;48140;45.486;9.226;2022-09-25T02:36:43;15.00;99.90
62154;DHT22;48140;45.486;9.226;2022-09-25T02:39:08;15.00;99.90
62154;DHT22;48140;45.486;9.226;2022-09-25T02:44:13;15.00;99.90
62154;DHT22;48140;45.486;9.226;2022-09-25T02:51:57;14.90;99.90
62154;DHT22;48140;45.486;9.226;2022-09-25T02:54:30;14.90;99.90
62154;DHT22;48140;45.486;9.226;2022-09-25T02:59:29;15.00;99.90
62154;DHT22;48140;45.486;9.226;2022-09-25T03:01:57;15.00;99.90
62154;DHT22;48140;45.486;9.226;2022-09-25T03:04:23;15.00;99.90
62154;DHT22;48140;45.486;9.226;2022-09-25T03:06:50;15.00;99.90
62154;DHT22;48140;45.486;9.226;2022-09-25T03:09:16;15.00;99.90
62154;DHT22;48140;45.486;9.226;2022-09-25T03:11:43;14.90;99.90
62154;DHT22;48140;45.486;9.226;2022-09-25T03:14:10;14.90;99.90
62154;DHT22;48140;45.486;9.226;2022-09-25T03:19:01;15.00;99.90
62154;DHT22;48140;45.486;9.226;2022-09-25T03:21:27;15.00;99.90
62154;DHT22;48140;45.486;9.226;2022-09-25T03:23:52;15.00;99.90
62154;DHT22;48140;45.486;9.226;2022-09-25T03:26:21;15.00;99.90
62154;DHT22;48140;45.486;9.226;2022-09-25T03:28:47;15.00;99.90
62154;DHT22;48140;45.486;9.226;2022-09-25T03:31:12;15.10;99.90
62154;DHT22;48140;45.486;9.226;2022-09-25T03:33:39;15.10;99.90
62154;DHT22;48140;45.486;9.226;2022-09-25T03:36:06;15.10;99.90
62154;DHT22;48140;45.486;9.226;2022-09-25T03:38:33;15.10;99.90
62154;DHT22;48140;45.486;9.226;2022-09-25T03:40:59;15.10;99.90
62154;DHT22;48140;45.486;9.226;2022-09-25T03:43:25;15.10;99.90
62154;DHT22;48140;45.486;9.226;2022-09-25T03:45:50;15.10;99.90
62154;DHT22;48140;45.486;9.226;2022-09-25T03:48:16;15.20;99.90
62154;DHT22;48140;45.486;9.226;2022-09-25T03:50:42;15.10;99.90
62154;DHT22;48140;45.486;9.226;2022-09-25T03:53:08;15.10;99.90
62154;DHT22;48140;45.486;9.226;2022-09-25T03:55:33;15.10;99.90
62154;DHT22;48140;45.486;9.226;2022-09-25T03:57:59;15.10;99.90
62154;DHT22;48140;45.486;9.226;2022-09-25T04:00:24;15.10;99.90
62154;DHT22;48140;45.486;9.226;2022-09-25T04:02:50;15.10;99.90
62154;DHT22;48140;45.486;9.226;2022-09-25T04:05:16;15.10;99.90
62154;DHT22;48140;45.486;9.226;2022-09-25T04:07:43;15.10;99.90
62154;DHT22;48140;45.486;9.226;2022-09-25T04:10:08;15.10;99.90
62154;DHT22;48140;45.486;9.226;2022-09-25T04:12:34;15.10;99.90
62154;DHT22;48140;45.486;9.226;2022-09-25T04:15:00;15.10;99.90
62154;DHT22;48140;45.486;9.226;2022-09-25T04:17:26;15.10;99.90
62154;DHT22;48140;45.486;9.226;2022-09-25T04:19:53;15.10;99.90
62154;DHT22;48140;45.486;9.226;2022-09-25T04:22:18;15.10;99.90
62154;DHT22;48140;45.486;9.226;2022-09-25T04:24:44;15.10;99.90
62154;DHT22;48140;45.486;9.226;2022-09-25T04:27:12;15.10;99.90
62154;DHT22;48140;45.486;9.226;2022-09-25T04:29:38;15.10;99.90
62154;DHT22;48140;45.486;9.226;2022-09-25T04:32:04;15.10;99.90
62154;DHT22;48140;45.486;9.226;2022-09-25T04:34:48;15.10;99.90
62154;DHT22;48140;45.486;9.226;2022-09-25T04:37:14;15.20;99.90
62154;DHT22;48140;45.486;9.226;2022-09-25T04:39:39;15.10;99.90
62154;DHT22;48140;45.486;9.226;2022-09-25T04:42:05;15.10;99.90
62154;DHT22;48140;45.486;9.226;2022-09-25T04:44:30;15.10;99.90
62154;DHT22;48140;45.486;9.226;2022-09-25T04:46:56;15.20;99.90
62154;DHT22;48140;45.486;9.226;2022-09-25T04:49:22;15.20;99.90
62154;DHT22;48140;45.486;9.226;2022-09-25T04:51:47;15.10;99.90
62154;DHT22;48140;45.486;9.226;2022-09-25T04:54:12;15.10;99.90
62154;DHT22;48140;45.486;9.226;2022-09-25T04:56:43;15.10;99.90
62154;DHT22;48140;45.486;9.226;2022-09-25T04:59:08;15.10;99.90
62154;DHT22;48140;45.486;9.226;2022-09-25T05:01:36;15.10;99.90
62154;DHT22;48140;45.486;9.226;2022-09-25T05:04:01;15.10;99.90
62154;DHT22;48140;45.486;9.226;2022-09-25T05:06:27;15.10;99.90
62154;DHT22;48140;45.486;9.226;2022-09-25T05:08:53;15.10;99.90
62154;DHT22;48140;45.486;9.226;2022-09-25T05:11:19;15.00;99.90
62154;DHT22;48140;45.486;9.226;2022-09-25T05:13:48;15.00;99.90
62154;DHT22;48140;45.486;9.226;2022-09-25T05:16:14;15.00;99.90
62154;DHT22;48140;45.486;9.226;2022-09-25T05:18:39;15.10;99.90
62154;DHT22;48140;45.486;9.226;2022-09-25T05:21:05;15.00;99.90
62154;DHT22;48140;45.486;9.226;2022-09-25T05:23:30;15.00;99.90
62154;DHT22;48140;45.486;9.226;2022-09-25T05:25:56;15.10;99.90
62154;DHT22;48140;45.486;9.226;2022-09-25T05:28:27;15.10;99.90
62154;DHT22;48140;45.486;9.226;2022-09-25T05:30:53;15.10;99.90
62154;DHT22;48140;45.486;9.226;2022-09-25T05:33:19;15.00;99.90
62154;DHT22;48140;45.486;9.226;2022-09-25T05:35:45;15.00;99.90
62154;DHT22;48140;45.486;9.226;2022-09-25T05:38:10;15.00;99.90
62154;DHT22;48140;45.486;9.226;2022-09-25T05:40:36;15.10;99.90
62154;DHT22;48140;45.486;9.226;2022-09-25T05:43:05;15.10;99.90
62154;DHT22;48140;45.486;9.226;2022-09-25T05:45:31;15.10;99.90
62154;DHT22;48140;45.486;9.226;2022-09-25T05:48:04;15.10;99.90
62154;DHT22;48140;45.486;9.226;2022-09-25T05:50:30;15.20;99.90
62154;DHT22;48140;45.486;9.226;2022-09-25T05:52:59;15.20;99.90
62154;DHT22;48140;45.486;9.226;2022-09-25T05:55:25;15.20;99.90
62154;DHT22;48140;45.486;9.226;2022-09-25T05:57:51;15.20;99.90
62154;DHT22;48140;45.486;9.226;2022-09-25T06:00:17;15.20;99.90
62154;DHT22;48140;45.486;9.226;2022-09-25T06:02:42;15.30;99.90
62154;DHT22;48140;45.486;9.226;2022-09-25T06:05:08;15.20;99.90
62154;DHT22;48140;45.486;9.226;2022-09-25T06:07:34;15.30;99.90
62154;DHT22;48140;45.486;9.226;2022-09-25T06:10:00;15.30;99.90
62154;DHT22;48140;45.486;9.226;2022-09-25T06:12:29;15.30;99.90
62154;DHT22;48140;45.486;9.226;2022-09-25T06:14:54;15.30;99.90
62154;DHT22;48140;45.486;9.226;2022-09-25T06:17:20;15.30;99.90
62154;DHT22;48140;45.486;9.226;2022-09-25T06:19:45;15.30;99.90
62154;DHT22;48140;45.486;9.226;2022-09-25T06:22:11;15.40;99.90
62154;DHT22;48140;45.486;9.226;2022-09-25T06:24:37;15.40;99.90
62154;DHT22;48140;45.486;9.226;2022-09-25T06:27:04;15.40;99.90
62154;DHT22;48140;45.486;9.226;2022-09-25T06:29:30;15.40;99.90
62154;DHT22;48140;45.486;9.226;2022-09-25T06:31:55;15.40;99.90
62154;DHT22;48140;45.486;9.226;2022-09-25T06:34:21;15.40;99.90
62154;DHT22;48140;45.486;9.226;2022-09-25T06:36:52;15.40;99.90
62154;DHT22;48140;45.486;9.226;2022-09-25T06:39:21;15.50;99.90
62154;DHT22;48140;45.486;9.226;2022-09-25T06:41:50;15.60;99.90
62154;DHT22;48140;45.486;9.226;2022-09-25T06:44:16;15.80;99.90
62154;DHT22;48140;45.486;9.226;2022-09-25T06:46:41;15.80;99.90
62154;DHT22;48140;45.486;9.226;2022-09-25T06:49:10;15.90;99.90
62154;DHT22;48140;45.486;9.226;2022-09-25T06:51:37;16.00;99.90
62154;DHT22;48140;45.486;9.226;2022-09-25T06:54:03;16.00;99.90
62154;DHT22;48140;45.486;9.226;2022-09-25T06:56:29;16.10;99.90
62154;DHT22;48140;45.486;9.226;2022-09-25T06:58:54;16.20;99.90
62154;DHT22;48140;45.486;9.226;2022-09-25T07:01:20;16.10;99.90
62154;DHT22;48140;45.486;9.226;2022-09-25T07:03:45;16.00;99.90
62154;DHT22;48140;45.486;9.226;2022-09-25T07:06:13;16.10;99.90
62154;DHT22;48140;45.486;9.226;2022-09-25T07:08:38;16.10;99.90
62154;DHT22;48140;45.486;9.226;2022-09-25T07:11:04;16.20;99.90
62154;DHT22;48140;45.486;9.226;2022-09-25T07:13:31;16.20;99.90
62154;DHT22;48140;45.486;9.226;2022-09-25T07:15:58;16.20;99.90
62154;DHT22;48140;45.486;9.226;2022-09-25T07:18:24;16.30;99.90
62154;DHT22;48140;45.486;9.226;2022-09-25T07:20:50;16.30;99.90
62154;DHT22;48140;45.486;9.226;2022-09-25T07:23:17;16.40;99.90
62154;DHT22;48140;45.486;9.226;2022-09-25T07:25:43;16.20;99.90
62154;DHT22;48140;45.486;9.226;2022-09-25T07:28:09;16.20;99.90
62154;DHT22;48140;45.486;9.226;2022-09-25T07:30:37;16.20;99.90
62154;DHT22;48140;45.486;9.226;2022-09-25T07:33:02;16.30;99.90
62154;DHT22;48140;45.486;9.226;2022-09-25T07:35:28;16.30;99.90
62154;DHT22;48140;45.486;9.226;2022-09-25T07:37:57;16.40;99.90
62154;DHT22;48140;45.486;9.226;2022-09-25T07:40:23;16.40;99.90
62154;DHT22;48140;45.486;9.226;2022-09-25T07:42:50;16.40;99.90
62154;DHT22;48140;45.486;9.226;2022-09-25T07:45:16;16.50;99.90
62154;DHT22;48140;45.486;9.226;2022-09-25T07:47:41;16.40;99.90
62154;DHT22;48140;45.486;9.226;2022-09-25T07:50:07;16.50;99.90
62154;DHT22;48140;45.486;9.226;2022-09-25T07:52:33;16.40;99.90
62154;DHT22;48140;45.486;9.226;2022-09-25T07:54:58;16.50;99.90
62154;DHT22;48140;45.486;9.226;2022-09-25T07:57:24;16.50;99.90
62154;DHT22;48140;45.486;9.226;2022-09-25T07:59:49;16.50;99.90
62154;DHT22;48140;45.486;9.226;2022-09-25T08:02:15;16.50;99.90
62154;DHT22;48140;45.486;9.226;2022-09-25T08:04:40;16.70;99.70
62154;DHT22;48140;45.486;9.226;2022-09-25T08:07:06;16.70;99.70
62154;DHT22;48140;45.486;9.226;2022-09-25T08:09:32;16.90;99.30
62154;DHT22;48140;45.486;9.226;2022-09-25T08:11:57;17.00;98.10
62154;DHT22;48140;45.486;9.226;2022-09-25T08:14:23;17.00;97.70
62154;DHT22;48140;45.486;9.226;2022-09-25T08:16:49;17.00;98.30
62154;DHT22;48140;45.486;9.226;2022-09-25T08:19:16;17.10;97.20
62154;DHT22;48140;45.486;9.226;2022-09-25T08:21:43;17.00;97.00
62154;DHT22;48140;45.486;9.226;2022-09-25T08:24:08;17.00;96.70
62154;DHT22;48140;45.486;9.226;2022-09-25T08:26:35;16.90;97.10
62154;DHT22;48140;45.486;9.226;2022-09-25T08:29:01;16.90;97.50
62154;DHT22;48140;45.486;9.226;2022-09-25T08:31:27;16.90;97.70
62154;DHT22;48140;45.486;9.226;2022-09-25T08:33:52;16.90;97.70
62154;DHT22;48140;45.486;9.226;2022-09-25T08:36:18;16.80;97.50
62154;DHT22;48140;45.486;9.226;2022-09-25T08:38:44;17.00;97.00
62154;DHT22;48140;45.486;9.226;2022-09-25T08:44:08;17.20;95.80
62154;DHT22;48140;45.486;9.226;2022-09-25T08:49:21;17.40;94.40
62154;DHT22;48140;45.486;9.226;2022-09-25T08:51:50;17.40;93.80
62154;DHT22;48140;45.486;9.226;2022-09-25T08:54:19;17.40;93.50
62154;DHT22;48140;45.486;9.226;2022-09-25T08:56:47;17.40;93.70
62154;DHT22;48140;45.486;9.226;2022-09-25T08:59:36;17.40;94.20
62154;DHT22;48140;45.486;9.226;2022-09-25T09:02:08;17.50;94.00
62154;DHT22;48140;45.486;9.226;2022-09-25T09:04:54;17.40;93.90
62154;DHT22;48140;45.486;9.226;2022-09-25T09:07:24;17.40;94.30
62154;DHT22;48140;45.486;9.226;2022-09-25T09:10:06;17.30;93.90
62154;DHT22;48140;45.486;9.226;2022-09-25T09:15:04;17.00;95.10
62154;DHT22;48140;45.486;9.226;2022-09-25T09:17:32;16.90;95.20
62154;DHT22;48140;45.486;9.226;2022-09-25T09:20:10;16.80;94.60
62154;DHT22;48140;45.486;9.226;2022-09-25T09:22:38;16.80;95.70
62154;DHT22;48140;45.486;9.226;2022-09-25T09:25:25;17.00;95.70
62154;DHT22;48140;45.486;9.226;2022-09-25T09:30:22;17.10;95.60
62154;DHT22;48140;45.486;9.226;2022-09-25T09:33:10;17.20;95.90
62154;DHT22;48140;45.486;9.226;2022-09-25T09:41:10;17.00;95.60
62154;DHT22;48140;45.486;9.226;2022-09-25T09:51:22;17.00;95.70
62154;DHT22;48140;45.486;9.226;2022-09-25T09:53:51;17.10;95.60
62154;DHT22;48140;45.486;9.226;2022-09-25T09:56:25;17.20;94.70
62154;DHT22;48140;45.486;9.226;2022-09-25T09:58:59;17.20;94.40
62154;DHT22;48140;45.486;9.226;2022-09-25T10:01:27;17.30;94.10
62154;DHT22;48140;45.486;9.226;2022-09-25T10:04:03;17.60;93.40
62154;DHT22;48140;45.486;9.226;2022-09-25T10:06:31;17.80;92.50
62154;DHT22;48140;45.486;9.226;2022-09-25T10:08:58;18.10;91.70
62154;DHT22;48140;45.486;9.226;2022-09-25T10:11:23;18.30;91.20
62154;DHT22;48140;45.486;9.226;2022-09-25T10:13:50;18.70;90.00
62154;DHT22;48140;45.486;9.226;2022-09-25T10:16:20;18.90;88.20
62154;DHT22;48140;45.486;9.226;2022-09-25T10:27:20;19.40;84.50
62154;DHT22;48140;45.486;9.226;2022-09-25T10:29:46;19.40;83.30
62154;DHT22;48140;45.486;9.226;2022-09-25T10:32:24;19.40;83.00
62154;DHT22;48140;45.486;9.226;2022-09-25T10:34:51;19.50;82.00
62154;DHT22;48140;45.486;9.226;2022-09-25T10:37:18;19.60;82.60
62154;DHT22;48140;45.486;9.226;2022-09-25T10:39:58;19.60;82.00
62154;DHT22;48140;45.486;9.226;2022-09-25T10:44:56;19.70;81.30
62154;DHT22;48140;45.486;9.226;2022-09-25T10:50:20;19.90;80.00
62154;DHT22;48140;45.486;9.226;2022-09-25T10:52:56;20.10;80.10
62154;DHT22;48140;45.486;9.226;2022-09-25T11:00:42;20.40;78.00
62154;DHT22;48140;45.486;9.226;2022-09-25T11:03:20;20.70;77.10
62154;DHT22;48140;45.486;9.226;2022-09-25T11:05:51;20.90;75.30
62154;DHT22;48140;45.486;9.226;2022-09-25T11:08:17;21.30;75.00
62154;DHT22;48140;45.486;9.226;2022-09-25T11:11:01;21.70;73.00
62154;DHT22;48140;45.486;9.226;2022-09-25T11:13:28;21.70;71.60
62154;DHT22;48140;45.486;9.226;2022-09-25T11:16:01;21.60;71.20
62154;DHT22;48140;45.486;9.226;2022-09-25T11:18:36;21.20;72.50
62154;DHT22;48140;45.486;9.226;2022-09-25T11:21:02;20.70;75.00
62154;DHT22;48140;45.486;9.226;2022-09-25T11:23:30;20.80;76.20
62154;DHT22;48140;45.486;9.226;2022-09-25T11:26:02;20.80;76.50
62154;DHT22;48140;45.486;9.226;2022-09-25T11:28:36;20.80;77.00
62154;DHT22;48140;45.486;9.226;2022-09-25T11:31:10;20.80;78.10
62154;DHT22;48140;45.486;9.226;2022-09-25T11:33:41;20.90;77.60
62154;DHT22;48140;45.486;9.226;2022-09-25T11:36:50;20.80;77.00
62154;DHT22;48140;45.486;9.226;2022-09-25T11:38:59;20.80;77.00
62154;DHT22;48140;45.486;9.226;2022-09-25T11:49:19;21.20;75.30
62154;DHT22;48140;45.486;9.226;2022-09-25T11:54:40;21.20;74.30
62154;DHT22;48140;45.486;9.226;2022-09-25T11:57:12;21.30;74.70
62154;DHT22;48140;45.486;9.226;2022-09-25T12:02:30;21.10;76.40
62154;DHT22;48140;45.486;9.226;2022-09-25T12:12:41;20.30;79.50
62154;DHT22;48140;45.486;9.226;2022-09-25T12:15:13;20.20;80.50
62154;DHT22;48140;45.486;9.226;2022-09-25T12:30:10;19.90;82.80
62154;DHT22;48140;45.486;9.226;2022-09-25T12:32:55;19.90;81.80
62154;DHT22;48140;45.486;9.226;2022-09-25T12:35:42;20.00;82.00
62154;DHT22;48140;45.486;9.226;2022-09-25T12:38:13;20.10;81.20
62154;DHT22;48140;45.486;9.226;2022-09-25T12:40:43;20.30;79.80
62154;DHT22;48140;45.486;9.226;2022-09-25T12:43:25;20.10;80.00
62154;DHT22;48140;45.486;9.226;2022-09-25T12:53:23;21.20;75.10
62154;DHT22;48140;45.486;9.226;2022-09-25T12:55:52;21.30;75.00
62154;DHT22;48140;45.486;9.226;2022-09-25T12:58:36;21.30;73.90
62154;DHT22;48140;45.486;9.226;2022-09-25T13:01:07;21.50;73.70
62154;DHT22;48140;45.486;9.226;2022-09-25T13:06:27;21.80;72.60
62154;DHT22;48140;45.486;9.226;2022-09-25T13:09:05;21.90;71.10
62154;DHT22;48140;45.486;9.226;2022-09-25T13:11:36;22.10;70.90
62154;DHT22;48140;45.486;9.226;2022-09-25T13:14:03;23.10;68.20
62154;DHT22;48140;45.486;9.226;2022-09-25T13:16:30;24.20;63.30
62154;DHT22;48140;45.486;9.226;2022-09-25T13:19:09;25.10;58.40
62154;DHT22;48140;45.486;9.226;2022-09-25T13:21:36;25.50;54.50
62154;DHT22;48140;45.486;9.226;2022-09-25T13:24:04;25.70;54.00
62154;DHT22;48140;45.486;9.226;2022-09-25T13:26:32;25.50;54.30
62154;DHT22;48140;45.486;9.226;2022-09-25T13:29:16;25.00;55.30
62154;DHT22;48140;45.486;9.226;2022-09-25T13:31:45;24.20;57.80
62154;DHT22;48140;45.486;9.226;2022-09-25T13:34:12;23.50;59.70
62154;DHT22;48140;45.486;9.226;2022-09-25T13:36:51;23.00;63.10
62154;DHT22;48140;45.486;9.226;2022-09-25T13:39:31;22.50;64.70
62154;DHT22;48140;45.486;9.226;2022-09-25T13:44:46;21.60;68.90
62154;DHT22;48140;45.486;9.226;2022-09-25T13:49:54;21.30;70.80
62154;DHT22;48140;45.486;9.226;2022-09-25T13:52:29;21.00;73.00
62154;DHT22;48140;45.486;9.226;2022-09-25T14:00:21;20.60;76.30
62154;DHT22;48140;45.486;9.226;2022-09-25T14:02:47;20.50;76.60
62154;DHT22;48140;45.486;9.226;2022-09-25T14:05:14;20.40;76.50
62154;DHT22;48140;45.486;9.226;2022-09-25T14:07:41;20.30;77.20
62154;DHT22;48140;45.486;9.226;2022-09-25T14:10:07;20.20;77.70
62154;DHT22;48140;45.486;9.226;2022-09-25T14:12:42;20.30;78.10
62154;DHT22;48140;45.486;9.226;2022-09-25T14:17:38;19.90;78.80
62154;DHT22;48140;45.486;9.226;2022-09-25T14:20:13;19.60;80.10
62154;DHT22;48140;45.486;9.226;2022-09-25T14:22:51;19.50;80.50
62154;DHT22;48140;45.486;9.226;2022-09-25T14:27:52;19.60;80.80
62154;DHT22;48140;45.486;9.226;2022-09-25T14:30:18;19.70;80.30
62154;DHT22;48140;45.486;9.226;2022-09-25T14:35:25;19.80;80.10
62154;DHT22;48140;45.486;9.226;2022-09-25T14:40:32;19.70;81.20
62154;DHT22;48140;45.486;9.226;2022-09-25T14:48:18;19.70;83.10
62154;DHT22;48140;45.486;9.226;2022-09-25T14:50:46;19.70;83.50
62154;DHT22;48140;45.486;9.226;2022-09-25T14:53:16;19.80;83.10
62154;DHT22;48140;45.486;9.226;2022-09-25T14:55:45;20.00;82.40
62154;DHT22;48140;45.486;9.226;2022-09-25T14:58:18;20.00;82.40
62154;DHT22;48140;45.486;9.226;2022-09-25T15:00:47;20.00;82.00
62154;DHT22;48140;45.486;9.226;2022-09-25T15:03:14;20.20;81.10
62154;DHT22;48140;45.486;9.226;2022-09-25T15:05:46;20.30;80.50
62154;DHT22;48140;45.486;9.226;2022-09-25T15:08:19;20.50;80.20
62154;DHT22;48140;45.486;9.226;2022-09-25T15:10:47;20.60;78.70
62154;DHT22;48140;45.486;9.226;2022-09-25T15:13:17;20.80;77.90
62154;DHT22;48140;45.486;9.226;2022-09-25T15:15:44;21.10;77.40
62154;DHT22;48140;45.486;9.226;2022-09-25T15:18:30;21.30;76.40
62154;DHT22;48140;45.486;9.226;2022-09-25T15:20:56;21.40;75.40
62154;DHT22;48140;45.486;9.226;2022-09-25T15:23:21;21.30;75.70
62154;DHT22;48140;45.486;9.226;2022-09-25T15:25:49;21.20;75.80
62154;DHT22;48140;45.486;9.226;2022-09-25T15:28:16;21.10;76.30
62154;DHT22;48140;45.486;9.226;2022-09-25T15:30:42;20.80;78.30
62154;DHT22;48140;45.486;9.226;2022-09-25T15:33:21;20.70;78.30
62154;DHT22;48140;45.486;9.226;2022-09-25T15:35:54;20.40;79.20
62154;DHT22;48140;45.486;9.226;2022-09-25T15:38:20;20.50;79.80
62154;DHT22;48140;45.486;9.226;2022-09-25T15:40:55;20.70;78.70
62154;DHT22;48140;45.486;9.226;2022-09-25T15:43:22;21.30;76.40
62154;DHT22;48140;45.486;9.226;2022-09-25T15:48:20;22.40;72.00
62154;DHT22;48140;45.486;9.226;2022-09-25T15:50:47;22.90;68.90
62154;DHT22;48140;45.486;9.226;2022-09-25T15:53:31;23.20;67.60
62154;DHT22;48140;45.486;9.226;2022-09-25T15:56:01;23.50;66.40
62154;DHT22;48140;45.486;9.226;2022-09-25T15:58:27;24.00;64.50
62154;DHT22;48140;45.486;9.226;2022-09-25T16:00:57;23.80;63.70
62154;DHT22;48140;45.486;9.226;2022-09-25T16:03:49;23.80;63.90
62154;DHT22;48140;45.486;9.226;2022-09-25T16:06:41;23.70;63.60
62154;DHT22;48140;45.486;9.226;2022-09-25T16:09:20;23.60;64.40
62154;DHT22;48140;45.486;9.226;2022-09-25T16:11:46;23.70;64.30
62154;DHT22;48140;45.486;9.226;2022-09-25T16:14:26;23.50;65.10
62154;DHT22;48140;45.486;9.226;2022-09-25T16:16:53;23.50;64.80
62154;DHT22;48140;45.486;9.226;2022-09-25T16:21:50;22.70;66.90
62154;DHT22;48140;45.486;9.226;2022-09-25T16:24:17;22.10;69.50
62154;DHT22;48140;45.486;9.226;2022-09-25T16:26:44;21.90;71.00
62154;DHT22;48140;45.486;9.226;2022-09-25T16:31:36;21.30;74.20
62154;DHT22;48140;45.486;9.226;2022-09-25T16:34:02;21.30;73.40
62154;DHT22;48140;45.486;9.226;2022-09-25T16:36:35;21.30;72.90
62154;DHT22;48140;45.486;9.226;2022-09-25T16:41:34;20.90;74.70
62154;DHT22;48140;45.486;9.226;2022-09-25T16:44:10;20.70;76.60
62154;DHT22;48140;45.486;9.226;2022-09-25T16:46:43;20.40;77.80
62154;DHT22;48140;45.486;9.226;2022-09-25T16:49:09;20.00;79.70
62154;DHT22;48140;45.486;9.226;2022-09-25T16:51:36;19.70;82.10
62154;DHT22;48140;45.486;9.226;2022-09-25T16:54:02;19.20;85.40
62154;DHT22;48140;45.486;9.226;2022-09-25T16:56:29;19.10;85.90
62154;DHT22;48140;45.486;9.226;2022-09-25T16:58:55;19.10;86.50
62154;DHT22;48140;45.486;9.226;2022-09-25T17:01:21;18.60;89.30
62154;DHT22;48140;45.486;9.226;2022-09-25T17:03:48;18.60;90.20
62154;DHT22;48140;45.486;9.226;2022-09-25T17:06:20;18.40;90.60
62154;DHT22;48140;45.486;9.226;2022-09-25T17:08:46;18.50;90.50
62154;DHT22;48140;45.486;9.226;2022-09-25T17:11:12;18.50;90.50
62154;DHT22;48140;45.486;9.226;2022-09-25T17:13:38;18.50;90.70
62154;DHT22;48140;45.486;9.226;2022-09-25T17:16:04;18.50;90.60
62154;DHT22;48140;45.486;9.226;2022-09-25T17:18:30;18.50;90.40
62154;DHT22;48140;45.486;9.226;2022-09-25T17:20:56;18.50;90.60
62154;DHT22;48140;45.486;9.226;2022-09-25T17:23:23;18.50;90.40
62154;DHT22;48140;45.486;9.226;2022-09-25T17:26:03;18.50;91.10
62154;DHT22;48140;45.486;9.226;2022-09-25T17:28:29;18.40;91.00
62154;DHT22;48140;45.486;9.226;2022-09-25T17:30:57;18.50;90.80
62154;DHT22;48140;45.486;9.226;2022-09-25T17:33:24;18.40;91.20
62154;DHT22;48140;45.486;9.226;2022-09-25T17:38:17;18.40;91.30
62154;DHT22;48140;45.486;9.226;2022-09-25T17:40:44;18.30;91.90
62154;DHT22;48140;45.486;9.226;2022-09-25T17:43:10;18.20;92.20
62154;DHT22;48140;45.486;9.226;2022-09-25T17:45:39;18.20;92.40
62154;DHT22;48140;45.486;9.226;2022-09-25T17:48:07;18.10;92.60
62154;DHT22;48140;45.486;9.226;2022-09-25T17:50:32;18.00;93.00
62154;DHT22;48140;45.486;9.226;2022-09-25T17:53:00;17.90;93.30
62154;DHT22;48140;45.486;9.226;2022-09-25T17:55:26;17.90;93.60
62154;DHT22;48140;45.486;9.226;2022-09-25T17:57:51;17.90;93.70
62154;DHT22;48140;45.486;9.226;2022-09-25T18:00:17;17.80;94.10
62154;DHT22;48140;45.486;9.226;2022-09-25T18:02:42;17.80;94.20
62154;DHT22;48140;45.486;9.226;2022-09-25T18:05:10;17.80;94.20
62154;DHT22;48140;45.486;9.226;2022-09-25T18:07:37;17.70;94.30
62154;DHT22;48140;45.486;9.226;2022-09-25T18:10:04;17.70;94.40
62154;DHT22;48140;45.486;9.226;2022-09-25T18:12:30;17.70;94.90
62154;DHT22;48140;45.486;9.226;2022-09-25T18:14:55;17.70;94.70